Time;durP1;ratioP1;P1;durP2;ratioP2;P2;SDS_P1;SDS_P2;PMS_P1;PMS_P2;Temp;Humidity;BMP_temperature;BMP_pressure;BME280_temperature;BME280_humidity;BME280_pressure;Samples;Min_cycle;Max_cycle;Signal;HPM_P1;HPM_P2
2024/01/03 00:00:54;;;;;;;1.40;1.20;;;;;;;6.93;100.00;95683.91;5039541;28;20757;-81
2024/01/03 00:03:22;;;;;;;3.15;1.40;;;;;;;6.94;100.00;95682.88;5038857;28;20427;-80
2024/01/03 00:05:48;;;;;;;1.60;1.30;;;;;;;6.95;100.00;95689.69;5038360;28;20532;-81
2024/01/03 00:08:22;;;;;;;2.63;1.40;;;;;;;6.93;100.00;95682.06;5038521;28;20396;-80
2024/01/03 00:10:51;;;;;;;2.97;1.40;;;;;;;6.87;100.00;95685.00;5039344;28;20391;-80
2024/01/03 00:13:49;;;;;;;2.80;1.50;;;;;;;6.78;100.00;95676.88;5038789;28;20415;-80
2024/01/03 00:16:20;;;;;;;4.25;1.40;;;;;;;6.72;100.00;95672.69;5038908;28;20394;-80
2024/01/03 00:18:49;;;;;;;3.10;1.58;;;;;;;6.69;100.00;95665.31;5038678;28;20449;-80
2024/01/03 00:21:22;;;;;;;2.95;1.73;;;;;;;6.66;100.00;95665.09;5039151;28;20464;-79
2024/01/03 00:23:50;;;;;;;6.53;1.88;;;;;;;6.59;100.00;95668.00;5038795;28;20465;-80
2024/01/03 00:26:17;;;;;;;2.88;1.90;;;;;;;6.58;100.00;95663.78;5038435;28;20399;-81
2024/01/03 00:28:43;;;;;;;4.53;1.95;;;;;;;6.58;100.00;95666.44;5037934;28;20403;-81
2024/01/03 00:31:11;;;;;;;7.60;1.90;;;;;;;6.58;100.00;95671.69;5038721;28;20392;-81
2024/01/03 00:33:41;;;;;;;6.60;1.83;;;;;;;6.59;100.00;95666.16;5039235;28;20487;-80
2024/01/03 00:36:11;;;;;;;5.83;1.97;;;;;;;6.57;100.00;95646.44;5039440;28;20398;-81
2024/01/03 00:38:41;;;;;;;4.53;2.20;;;;;;;6.58;100.00;95646.19;5039637;28;20387;-80
2024/01/03 00:41:12;;;;;;;7.85;2.30;;;;;;;6.61;100.00;95656.16;5040892;28;20395;-80
2024/01/03 00:43:38;;;;;;;4.90;1.95;;;;;;;6.59;100.00;95658.28;5041022;28;20451;-80
2024/01/03 00:46:05;;;;;;;5.13;1.70;;;;;;;6.59;100.00;95668.78;5039777;28;20401;-80
2024/01/03 00:48:32;;;;;;;7.85;1.88;;;;;;;6.59;100.00;95650.38;5038761;28;20418;-80
2024/01/03 00:50:59;;;;;;;5.68;1.88;;;;;;;6.63;100.00;95669.03;5039833;28;20413;-80
2024/01/03 00:53:26;;;;;;;8.85;2.28;;;;;;;6.68;100.00;95676.13;5040582;28;20406;-80
2024/01/03 00:55:53;;;;;;;7.13;2.10;;;;;;;6.70;100.00;95685.31;5040745;28;20405;-79
2024/01/03 00:58:19;;;;;;;7.25;2.10;;;;;;;6.70;100.00;95684.50;5040928;28;20486;-80
2024/01/03 01:00:46;;;;;;;8.15;1.70;;;;;;;6.69;100.00;95704.75;5040202;28;20399;-80
2024/01/03 01:03:13;;;;;;;10.48;2.00;;;;;;;6.70;100.00;95705.56;5041479;28;20414;-80
2024/01/03 01:05:39;;;;;;;7.80;1.90;;;;;;;6.68;100.00;95710.31;5043764;28;20425;-79
2024/01/03 01:08:06;;;;;;;5.45;1.80;;;;;;;6.68;100.00;95715.56;5045270;28;20462;-81
2024/01/03 01:10:34;;;;;;;7.32;1.90;;;;;;;6.60;100.00;95695.88;5047564;28;20426;-80
2024/01/03 01:13:00;;;;;;;7.38;2.05;;;;;;;6.58;100.00;95698.75;5052119;28;20429;-79
2024/01/03 01:15:26;;;;;;;8.10;2.20;;;;;;;6.56;100.00;95703.50;5051451;28;20456;-80
2024/01/03 01:17:52;;;;;;;5.78;1.90;;;;;;;6.58;100.00;95695.34;5049003;28;20481;-80
2024/01/03 01:20:18;;;;;;;6.25;2.40;;;;;;;6.55;100.00;95690.59;5046876;28;20401;-80
2024/01/03 01:22:44;;;;;;;4.63;2.10;;;;;;;6.56;100.00;95705.31;5047162;28;20497;-81
2024/01/03 01:25:11;;;;;;;3.13;1.70;;;;;;;6.54;100.00;95708.22;5046715;28;20759;-80
2024/01/03 01:27:38;;;;;;;4.78;1.80;;;;;;;6.51;100.00;95710.59;5042604;28;20434;-80
2024/01/03 01:30:05;;;;;;;4.43;1.70;;;;;;;6.48;100.00;95701.41;5042757;28;20403;-79
2024/01/03 01:32:32;;;;;;;4.30;1.55;;;;;;;6.48;100.00;95709.28;5042380;28;20768;-81
2024/01/03 01:34:58;;;;;;;1.60;1.42;;;;;;;6.49;100.00;95718.75;5042363;28;20427;-79
2024/01/03 01:37:24;;;;;;;3.33;1.73;;;;;;;6.50;100.00;95722.16;5043189;28;20399;-77
2024/01/03 01:39:50;;;;;;;2.47;1.70;;;;;;;6.53;100.00;95717.19;5042624;28;20425;-80
2024/01/03 01:42:16;;;;;;;2.30;1.60;;;;;;;6.51;100.00;95726.38;5042781;28;20415;-81
2024/01/03 01:44:44;;;;;;;4.38;1.63;;;;;;;6.48;100.00;95730.31;5043417;28;20398;-80
2024/01/03 01:47:11;;;;;;;5.13;1.77;;;;;;;6.49;100.00;95739.78;5042428;28;20434;-81
2024/01/03 01:49:39;;;;;;;5.53;2.10;;;;;;;6.57;100.00;95741.06;5042340;28;20399;-80
2024/01/03 01:52:06;;;;;;;2.53;1.60;;;;;;;6.67;100.00;95746.31;5043140;28;20410;-81
2024/01/03 01:54:33;;;;;;;3.38;1.60;;;;;;;6.71;100.00;95746.56;5043019;28;20399;-80
2024/01/03 01:56:59;;;;;;;2.55;1.50;;;;;;;6.69;100.00;95743.44;5043423;28;20918;-80
2024/01/03 01:59:26;;;;;;;2.25;1.38;;;;;;;6.62;100.00;95738.44;5043020;28;20426;-79
2024/01/03 02:01:54;;;;;;;5.30;1.95;;;;;;;6.54;100.00;95750.28;5042160;28;20428;-81
2024/01/03 02:04:21;;;;;;;3.63;1.90;;;;;;;6.58;100.00;95743.44;5042197;28;20406;-81
2024/01/03 02:06:48;;;;;;;4.80;1.80;;;;;;;6.61;100.00;95731.63;5042596;28;20420;-80
2024/01/03 02:09:14;;;;;;;2.40;1.52;;;;;;;6.56;100.00;95742.13;5042934;28;20487;-81
2024/01/03 02:11:44;;;;;;;4.05;1.80;;;;;;;6.51;100.00;95737.69;5041826;28;20427;-79
2024/01/03 02:14:11;;;;;;;2.33;1.50;;;;;;;6.48;100.00;95740.81;5041218;28;20402;-78
2024/01/03 02:16:37;;;;;;;1.80;1.30;;;;;;;6.45;100.00;95736.13;5042090;28;20395;-82
2024/01/03 02:19:04;;;;;;;3.77;1.50;;;;;;;6.45;100.00;95748.47;5042054;28;20937;-80
2024/01/03 02:21:32;;;;;;;3.42;1.50;;;;;;;6.46;100.00;95747.41;5045826;28;20395;-78
2024/01/03 02:23:58;;;;;;;2.20;1.20;;;;;;;6.40;100.00;95743.97;5046799;28;20488;-80
2024/01/03 02:26:24;;;;;;;2.60;1.48;;;;;;;6.37;100.00;95738.47;5047387;28;20798;-78
2024/01/03 02:28:50;;;;;;;2.38;1.30;;;;;;;6.34;100.00;95739.78;5047219;28;20892;-81
2024/01/03 02:31:16;;;;;;;1.30;1.20;;;;;;;6.34;100.00;95746.88;5046228;28;20407;-80
2024/01/03 02:33:43;;;;;;;1.40;1.30;;;;;;;6.31;100.00;95735.09;5047386;28;20395;-81
2024/01/03 02:36:09;;;;;;;2.10;1.30;;;;;;;6.29;100.00;95752.16;5046697;28;20407;-79
2024/01/03 02:38:36;;;;;;;3.20;1.30;;;;;;;6.28;100.00;95745.31;5046311;28;20395;-81
2024/01/03 02:41:02;;;;;;;3.70;1.27;;;;;;;6.32;100.00;95756.88;5044743;28;20403;-81
2024/01/03 02:43:29;;;;;;;1.77;1.17;;;;;;;6.33;100.00;95759.22;5046758;28;20415;-82
2024/01/03 02:45:55;;;;;;;4.03;1.42;;;;;;;6.45;100.00;95759.78;5044901;28;20414;-80
2024/01/03 02:48:22;;;;;;;2.00;1.30;;;;;;;6.48;100.00;95761.84;5047427;28;20406;-80
2024/01/03 02:50:48;;;;;;;1.30;1.20;;;;;;;6.45;100.00;95772.91;5045707;28;20839;-81
2024/01/03 02:53:15;;;;;;;3.60;1.20;;;;;;;6.38;100.00;95759.25;5053020;28;20460;-81
2024/01/03 02:55:43;;;;;;;1.92;1.10;;;;;;;6.30;100.00;95746.63;5053012;28;20395;-81
2024/01/03 02:58:09;;;;;;;1.60;1.38;;;;;;;6.24;100.00;95747.66;5046619;28;20402;-81
2024/01/03 03:00:36;;;;;;;1.27;1.15;;;;;;;6.20;100.00;95751.88;5045287;28;20407;-80
2024/01/03 03:03:02;;;;;;;1.13;1.10;;;;;;;6.19;100.00;95758.19;5044535;28;20488;-81
2024/01/03 03:05:28;;;;;;;1.80;1.40;;;;;;;6.21;100.00;95758.72;5044341;28;20402;-81
2024/01/03 03:07:55;;;;;;;1.95;1.30;;;;;;;6.22;100.00;95755.84;5042125;28;20441;-80
2024/01/03 03:10:21;;;;;;;2.10;1.40;;;;;;;6.20;100.00;95751.88;5041930;28;20733;-80
2024/01/03 03:12:49;;;;;;;2.80;1.40;;;;;;;6.19;100.00;95748.47;5040784;28;20427;-80
2024/01/03 03:15:15;;;;;;;2.20;1.50;;;;;;;6.20;100.00;95747.41;5041830;28;20402;-80
2024/01/03 03:17:41;;;;;;;1.73;1.40;;;;;;;6.22;100.00;95742.69;5041642;28;20439;-80
2024/01/03 03:20:08;;;;;;;1.85;1.45;;;;;;;6.23;100.00;95738.25;5041491;28;20750;-81
2024/01/03 03:22:34;;;;;;;2.17;1.40;;;;;;;6.20;100.00;95730.88;5042788;28;20445;-79
2024/01/03 03:25:00;;;;;;;2.22;1.45;;;;;;;6.15;100.00;95736.91;5040722;28;20399;-80
2024/01/03 03:27:26;;;;;;;2.20;1.45;;;;;;;6.07;100.00;95734.81;5040475;28;20411;-80
2024/01/03 03:29:54;;;;;;;2.10;1.35;;;;;;;6.05;100.00;95736.91;5044357;28;20390;-80
2024/01/03 03:32:20;;;;;;;3.33;1.70;;;;;;;6.01;100.00;95751.63;5045146;28;20795;-81
2024/01/03 03:34:47;;;;;;;2.33;1.40;;;;;;;5.97;100.00;95734.81;5041876;28;20844;-80
2024/01/03 03:37:13;;;;;;;2.55;1.50;;;;;;;5.91;100.00;95743.72;5041202;28;20395;-81
2024/01/03 03:39:39;;;;;;;3.90;1.60;;;;;;;5.87;100.00;95744.47;5041099;28;20399;-80
2024/01/03 03:42:05;;;;;;;2.53;1.50;;;;;;;5.83;100.00;95749.47;5040275;28;20442;-80
2024/01/03 03:44:31;;;;;;;2.85;1.60;;;;;;;5.78;100.00;95749.47;5039848;28;20399;-80
2024/01/03 03:46:59;;;;;;;2.50;1.80;;;;;;;5.74;100.00;95736.06;5039902;28;20474;-80
2024/01/03 03:49:25;;;;;;;5.35;1.90;;;;;;;5.77;100.00;95727.69;5040602;28;20532;-80
2024/01/03 03:51:51;;;;;;;2.83;1.75;;;;;;;5.78;100.00;95724.00;5040224;28;20395;-80
2024/01/03 03:54:18;;;;;;;3.25;1.70;;;;;;;5.78;100.00;95731.88;5039174;28;20405;-80
2024/01/03 03:56:44;;;;;;;4.78;1.92;;;;;;;5.81;100.00;95722.69;5040173;28;20464;-81
2024/01/03 03:59:10;;;;;;;3.15;2.00;;;;;;;5.80;100.00;95732.38;5039553;28;20427;-80
2024/01/03 04:01:36;;;;;;;1.80;1.70;;;;;;;5.75;100.00;95727.13;5038756;28;20402;-80
2024/01/03 04:04:04;;;;;;;5.88;2.15;;;;;;;5.72;100.00;95730.28;5052825;28;20827;-80
2024/01/03 04:06:30;;;;;;;3.63;1.90;;;;;;;5.71;100.00;95726.06;5058850;28;20459;-80
2024/01/03 04:08:56;;;;;;;4.72;2.08;;;;;;;5.68;100.00;95726.59;5059387;28;20401;-80
2024/01/03 04:11:22;;;;;;;4.00;2.00;;;;;;;5.64;100.00;95716.91;5059305;28;20457;-81
2024/01/03 04:13:48;;;;;;;5.40;2.33;;;;;;;5.66;100.00;95731.31;5068123;28;20436;-80
2024/01/03 04:16:15;;;;;;;5.20;2.10;;;;;;;5.68;100.00;95739.72;5071575;28;20459;-80
2024/01/03 04:18:41;;;;;;;7.65;2.53;;;;;;;5.71;100.00;95741.06;5061720;28;20420;-80
2024/01/03 04:21:09;;;;;;;5.60;2.30;;;;;;;5.72;100.00;95745.25;5061011;28;20409;-80
2024/01/03 04:23:35;;;;;;;5.15;2.10;;;;;;;5.70;100.00;95755.22;5060280;28;20431;-80
2024/01/03 04:26:01;;;;;;;6.05;2.35;;;;;;;5.71;100.00;95743.69;5060944;28;20878;-81
2024/01/03 04:28:28;;;;;;;5.57;2.30;;;;;;;5.74;100.00;95740.53;5060827;28;20455;-81
2024/01/03 04:30:54;;;;;;;7.68;2.30;;;;;;;5.75;100.00;95737.66;5060944;28;20435;-80
2024/01/03 04:33:20;;;;;;;10.88;2.90;;;;;;;5.75;100.00;95729.75;5060734;28;20528;-80
2024/01/03 04:35:46;;;;;;;10.70;2.55;;;;;;;5.74;100.00;95724.78;5061797;28;20405;-81
2024/01/03 04:38:13;;;;;;;6.60;1.95;;;;;;;5.77;100.00;95735.56;5062074;28;20405;-80
2024/01/03 04:40:40;;;;;;;4.90;2.03;;;;;;;5.74;100.00;95736.06;5062403;28;20397;-80
2024/01/03 04:43:06;;;;;;;11.30;2.60;;;;;;;5.72;100.00;95732.09;5062646;28;20521;-80
2024/01/03 04:45:32;;;;;;;7.50;2.10;;;;;;;5.74;100.00;95736.06;5062926;28;20745;-81
2024/01/03 04:47:59;;;;;;;8.65;2.33;;;;;;;5.74;100.00;95740.53;5062558;28;20439;-81
2024/01/03 04:50:25;;;;;;;9.77;2.65;;;;;;;5.71;100.00;95736.56;5060768;28;20485;-79
2024/01/03 04:52:51;;;;;;;11.60;2.40;;;;;;;5.76;100.00;95736.59;5057774;28;20401;-80
2024/01/03 04:55:18;;;;;;;7.07;2.33;;;;;;;5.82;100.00;95735.56;5059092;28;20429;-80
2024/01/03 04:57:44;;;;;;;11.43;2.17;;;;;;;5.84;100.00;95735.28;5059402;28;20401;-80
2024/01/03 05:00:12;;;;;;;8.25;2.30;;;;;;;5.86;100.00;95732.41;5059761;28;20474;-80
2024/01/03 05:02:38;;;;;;;5.00;1.95;;;;;;;5.83;100.00;95733.72;5059373;28;20753;-80
2024/01/03 05:05:04;;;;;;;12.40;2.30;;;;;;;5.79;100.00;95736.06;5060013;28;20397;-80
2024/01/03 05:07:33;;;;;;;7.40;2.03;;;;;;;5.81;100.00;95730.56;5060500;28;20393;-81
2024/01/03 05:10:00;;;;;;;7.90;2.50;;;;;;;5.83;100.00;95734.50;5060086;28;20405;-80
2024/01/03 05:12:28;;;;;;;9.13;2.38;;;;;;;5.87;100.00;95752.34;5058625;28;20412;-80
2024/01/03 05:14:54;;;;;;;8.00;2.00;;;;;;;5.91;100.00;95743.72;5059171;28;20409;-80
2024/01/03 05:17:20;;;;;;;4.78;1.90;;;;;;;5.90;100.00;95752.66;5060516;28;20939;-80
2024/01/03 05:19:46;;;;;;;10.18;2.08;;;;;;;5.86;100.00;95751.59;5058540;28;20866;-79
2024/01/03 05:22:13;;;;;;;15.27;2.77;;;;;;;5.85;100.00;95757.88;5058354;28;20413;-81
2024/01/03 05:24:39;;;;;;;8.38;2.50;;;;;;;5.92;100.00;95768.16;5058414;28;20408;-80
2024/01/03 05:27:05;;;;;;;6.80;2.10;;;;;;;6.01;100.00;95772.66;5058647;28;20423;-80
2024/01/03 05:29:33;;;;;;;7.25;1.95;;;;;;;6.04;100.00;95755.56;5058395;28;20451;-80
2024/01/03 05:31:59;;;;;;;10.83;2.40;;;;;;;6.05;100.00;95762.38;5059709;28;20486;-80
2024/01/03 05:34:25;;;;;;;8.82;2.22;;;;;;;6.09;100.00;95758.19;5067918;28;20433;-78
2024/01/03 05:36:52;;;;;;;13.20;2.28;;;;;;;6.08;100.00;95752.16;5068266;28;20393;-78
2024/01/03 05:39:18;;;;;;;6.97;1.92;;;;;;;6.06;100.00;95743.75;5059191;28;20401;-79
2024/01/03 05:41:44;;;;;;;6.80;1.85;;;;;;;6.06;100.00;95751.63;5057518;28;20503;-79
2024/01/03 05:44:12;;;;;;;15.05;2.53;;;;;;;6.03;100.00;95738.22;5058732;28;20413;-81
2024/01/03 05:46:42;;;;;;;7.57;1.80;;;;;;;6.04;100.00;95755.56;5058380;28;20486;-81
2024/01/03 05:49:08;;;;;;;11.88;2.35;;;;;;;5.99;100.00;95748.47;5058546;28;20480;-81
2024/01/03 05:51:34;;;;;;;6.78;1.90;;;;;;;6.08;100.00;95762.66;5060834;28;20393;-81
2024/01/03 05:54:00;;;;;;;10.35;2.20;;;;;;;6.05;100.00;95775.53;5060004;28;20762;-80
2024/01/03 05:56:28;;;;;;;5.47;1.75;;;;;;;6.15;100.00;95757.94;5061374;28;20813;-79
2024/01/03 05:58:54;;;;;;;6.05;2.00;;;;;;;6.16;100.00;95763.97;5061582;28;20470;-80
2024/01/03 06:01:20;;;;;;;9.18;1.98;;;;;;;6.26;100.00;95769.22;5058346;28;20431;-82
2024/01/03 06:03:49;;;;;;;3.53;1.80;;;;;;;6.25;100.00;95785.25;5046151;28;20480;-83
2024/01/03 06:06:16;;;;;;;9.75;2.30;;;;;;;6.25;100.00;95785.25;5045319;28;20399;-83
2024/01/03 06:08:42;;;;;;;9.73;2.30;;;;;;;6.20;100.00;95784.19;5045894;28;20756;-81
2024/01/03 06:11:09;;;;;;;10.63;2.30;;;;;;;6.14;100.00;95785.25;5046844;28;20746;-80
2024/01/03 06:13:35;;;;;;;8.70;2.20;;;;;;;6.16;100.00;95792.88;5046297;28;20768;-81
2024/01/03 06:16:01;;;;;;;11.30;2.08;;;;;;;6.22;100.00;95799.72;5050011;28;20401;-83
2024/01/03 06:18:27;;;;;;;5.75;1.85;;;;;;;6.27;100.00;95791.03;5047807;28;20835;-83
2024/01/03 06:20:55;;;;;;;8.02;2.30;;;;;;;6.29;100.00;95796.81;5046090;28;20399;-82
2024/01/03 06:23:21;;;;;;;6.43;2.03;;;;;;;6.33;100.00;95793.41;5049153;28;20458;-81
2024/01/03 06:25:47;;;;;;;5.85;1.90;;;;;;;6.35;100.00;95786.03;5047614;28;20891;-79
2024/01/03 06:28:13;;;;;;;6.78;1.90;;;;;;;6.31;100.00;95781.59;5041883;28;20395;-78
2024/01/03 06:30:39;;;;;;;8.95;2.17;;;;;;;6.23;100.00;95788.16;5042856;28;21039;-77
2024/01/03 06:33:06;;;;;;;5.57;2.00;;;;;;;6.12;100.00;95771.59;5042847;28;20956;-78
2024/01/03 06:35:32;;;;;;;2.65;1.70;;;;;;;6.11;100.00;95792.84;5042775;28;20397;-78
2024/01/03 06:38:00;;;;;;;10.25;2.10;;;;;;;6.07;100.00;95776.06;5051080;28;20402;-81
2024/01/03 06:40:26;;;;;;;3.28;1.50;;;;;;;6.02;100.00;95783.91;5055414;28;20410;-82
2024/01/03 06:42:52;;;;;;;4.37;1.73;;;;;;;5.96;100.00;95784.97;5060026;28;20419;-82
2024/01/03 06:45:18;;;;;;;8.15;2.00;;;;;;;5.91;100.00;95783.13;5058039;28;20428;-82
2024/01/03 06:47:45;;;;;;;3.97;1.77;;;;;;;5.86;100.00;95779.69;5055159;28;20397;-79
2024/01/03 06:50:13;;;;;;;6.75;1.60;;;;;;;5.83;100.00;95779.13;5051389;28;20393;-79
2024/01/03 06:52:39;;;;;;;8.63;2.33;;;;;;;5.81;100.00;95788.31;5052595;28;20410;-80
2024/01/03 06:55:07;;;;;;;5.72;1.80;;;;;;;5.82;100.00;95782.81;5050522;28;20403;-81
2024/01/03 06:57:34;;;;;;;12.32;2.42;;;;;;;5.87;100.00;95774.16;5049074;28;20391;-82
2024/01/03 07:00:00;;;;;;;6.82;1.90;;;;;;;5.94;100.00;95784.44;5049794;28;20406;-81
2024/01/03 07:02:26;;;;;;;4.13;1.70;;;;;;;5.97;100.00;95782.06;5047574;28;20453;-79
2024/01/03 07:04:52;;;;;;;6.55;2.00;;;;;;;5.98;100.00;95767.91;5048384;28;20394;-81
2024/01/03 07:07:18;;;;;;;4.05;1.73;;;;;;;6.02;100.00;95776.81;5040807;28;20395;-81
2024/01/03 07:09:44;;;;;;;6.40;1.92;;;;;;;6.04;100.00;95779.97;5038644;28;20395;-81
2024/01/03 07:12:12;;;;;;;8.07;2.05;;;;;;;6.01;100.00;95780.53;5037724;28;20399;-82
2024/01/03 07:14:38;;;;;;;4.35;1.77;;;;;;;6.02;100.00;95786.53;5036365;28;20907;-81
2024/01/03 07:17:04;;;;;;;7.03;1.93;;;;;;;5.98;100.00;95790.75;5036024;28;20454;-81
2024/01/03 07:19:30;;;;;;;4.40;1.67;;;;;;;5.97;100.00;95794.41;5036784;28;20403;-82
2024/01/03 07:21:57;;;;;;;5.38;1.80;;;;;;;5.95;100.00;95796.50;5037719;28;20437;-80
2024/01/03 07:24:23;;;;;;;6.90;1.95;;;;;;;5.99;100.00;95797.56;5037925;28;20411;-80
2024/01/03 07:26:49;;;;;;;13.25;2.25;;;;;;;6.05;100.00;95799.16;5038238;28;20414;-80
2024/01/03 07:29:17;;;;;;;7.95;1.92;;;;;;;6.16;100.00;95788.38;5044857;28;20398;-82
2024/01/03 07:31:43;;;;;;;4.32;1.73;;;;;;;6.21;100.00;95791.03;5043301;28;20449;-81
2024/01/03 07:34:10;;;;;;;8.02;2.10;;;;;;;6.22;100.00;95792.63;5046775;28;20426;-82
2024/01/03 07:36:36;;;;;;;8.30;2.13;;;;;;;6.27;100.00;95791.81;5046202;28;20397;-81
2024/01/03 07:39:03;;;;;;;4.80;1.90;;;;;;;6.32;100.00;95801.53;5051352;28;20393;-80
2024/01/03 07:41:31;;;;;;;6.63;1.80;;;;;;;6.35;100.00;95790.50;5057445;28;20409;-82
2024/01/03 07:43:58;;;;;;;4.00;1.80;;;;;;;6.36;100.00;95799.97;5057415;28;20421;-81
2024/01/03 07:46:25;;;;;;;8.93;2.03;;;;;;;6.37;100.00;95798.94;5057337;28;20397;-82
2024/01/03 07:48:51;;;;;;;6.93;1.95;;;;;;;6.35;100.00;95796.56;5058545;28;20393;-80
2024/01/03 07:51:20;;;;;;;4.28;1.80;;;;;;;6.33;100.00;95801.28;5059345;28;20394;-80
2024/01/03 07:53:47;;;;;;;8.02;1.98;;;;;;;6.33;100.00;95796.03;5059195;28;20409;-80
2024/01/03 07:56:13;;;;;;;3.83;1.73;;;;;;;6.37;100.00;95802.34;5059945;28;20397;-78
2024/01/03 07:58:39;;;;;;;3.20;1.67;;;;;;;6.35;100.00;95809.69;5047194;28;20406;-86
2024/01/03 08:01:05;;;;;;;4.90;1.63;;;;;;;6.34;100.00;95810.75;5047605;28;20896;-85
2024/01/03 08:03:33;;;;;;;5.60;1.90;;;;;;;6.37;100.00;95815.47;5046626;28;20458;-82
2024/01/03 08:05:59;;;;;;;7.88;2.10;;;;;;;6.39;100.00;95810.72;5049853;28;20397;-80
2024/01/03 08:08:25;;;;;;;8.97;2.20;;;;;;;6.43;100.00;95805.75;5045774;28;20407;-79
2024/01/03 08:10:51;;;;;;;6.22;2.00;;;;;;;6.46;100.00;95827.06;5046123;28;20402;-78
2024/01/03 08:13:17;;;;;;;6.30;2.00;;;;;;;6.58;100.00;95813.63;5053522;28;20459;-80
2024/01/03 08:15:43;;;;;;;6.10;1.80;;;;;;;6.64;100.00;95812.56;5058879;28;20489;-81
2024/01/03 08:18:09;;;;;;;5.80;1.73;;;;;;;6.70;100.00;95816.78;5059051;28;20390;-81
2024/01/03 08:20:37;;;;;;;8.50;2.10;;;;;;;6.73;100.00;95815.47;5061092;28;20392;-82
2024/01/03 08:23:03;;;;;;;3.95;1.60;;;;;;;6.79;100.00;95812.56;5052152;28;20411;-83
2024/01/03 08:25:29;;;;;;;4.75;1.73;;;;;;;6.91;100.00;95817.56;5057536;28;20431;-82
2024/01/03 08:27:55;;;;;;;7.07;1.95;;;;;;;6.99;100.00;95809.88;5053646;28;20845;-83
2024/01/03 08:30:22;;;;;;;5.75;1.70;;;;;;;7.14;100.00;95814.31;5054128;28;20395;-81
2024/01/03 08:32:48;;;;;;;7.65;1.95;;;;;;;7.22;100.00;95811.16;5060977;28;20906;-81
2024/01/03 08:35:14;;;;;;;6.03;1.83;;;;;;;7.33;100.00;95811.91;5056981;28;20396;-81
2024/01/03 08:37:41;;;;;;;4.17;1.43;;;;;;;7.45;100.00;95828.19;5044819;28;20400;-80
2024/01/03 08:40:09;;;;;;;4.97;1.75;;;;;;;7.48;100.00;95801.31;5043579;28;20950;-82
2024/01/03 08:42:35;;;;;;;4.95;1.50;;;;;;;7.48;100.00;95803.97;5043460;28;20442;-79
2024/01/03 08:45:01;;;;;;;9.13;1.77;;;;;;;7.47;100.00;95805.00;5046246;28;20397;-80
2024/01/03 08:47:27;;;;;;;5.25;1.60;;;;;;;7.40;100.00;95809.78;5043080;28;20399;-81
2024/01/03 08:49:54;;;;;;;5.10;1.90;;;;;;;7.29;100.00;95803.75;5048818;28;20465;-81
2024/01/03 08:52:20;;;;;;;4.95;1.70;;;;;;;7.16;100.00;95798.28;5040067;28;20585;-80
2024/01/03 08:54:47;;;;;;;4.65;1.73;;;;;;;7.07;100.00;95805.94;5044549;28;20494;-81
2024/01/03 08:57:13;;;;;;;6.95;2.00;;;;;;;6.98;100.00;95816.22;5044711;28;20400;-80
2024/01/03 08:59:41;;;;;;;5.43;2.00;;;;;;;6.92;100.00;95813.84;5055032;28;20461;-80
2024/01/03 09:02:07;;;;;;;4.70;1.70;;;;;;;6.87;100.00;95829.66;5045968;28;20951;-81
2024/01/03 09:04:33;;;;;;;5.55;1.75;;;;;;;6.96;100.00;95838.59;5042082;28;20820;-80
2024/01/03 09:06:59;;;;;;;3.90;1.73;;;;;;;7.10;100.00;95841.44;5043016;28;20891;-79
2024/01/03 09:09:25;;;;;;;5.07;1.75;;;;;;;7.29;100.00;95847.72;5047579;28;20392;-81
2024/01/03 09:11:53;;;;;;;2.72;1.52;;;;;;;7.50;100.00;95830.81;5042850;28;20402;-79
2024/01/03 09:14:19;;;;;;;7.45;1.80;;;;;;;7.57;100.00;95844.47;5024565;28;20435;-79
2024/01/03 09:16:45;;;;;;;3.72;1.40;;;;;;;7.66;100.00;95828.91;5045951;28;20395;-81
2024/01/03 09:19:11;;;;;;;5.55;1.80;;;;;;;7.78;100.00;95822.25;5041395;28;20459;-82
2024/01/03 09:21:45;;;;;;;4.88;1.77;;;;;;;7.83;100.00;95823.28;5043591;28;20871;-81
2024/01/03 09:24:11;;;;;;;3.90;1.38;;;;;;;7.83;100.00;95815.38;5043192;28;20424;-81
2024/01/03 09:26:37;;;;;;;5.38;1.33;;;;;;;7.86;100.00;95834.06;5049410;28;20431;-81
2024/01/03 09:29:05;;;;;;;4.03;1.40;;;;;;;7.85;100.00;95845.66;5049196;28;20399;-81
2024/01/03 09:31:33;;;;;;;3.92;1.80;;;;;;;7.81;100.00;95870.19;5048170;28;20415;-80
2024/01/03 09:33:59;;;;;;;3.05;1.33;;;;;;;7.81;100.00;95833.31;5049375;28;20455;-82
2024/01/03 09:36:25;;;;;;;5.10;1.45;;;;;;;7.71;100.00;95840.19;5043059;28;20903;-81
2024/01/03 09:38:52;;;;;;;5.15;1.50;;;;;;;7.65;100.00;95840.50;5046553;28;20768;-80
2024/01/03 09:41:19;;;;;;;4.50;1.60;;;;;;;7.60;100.00;95835.22;5047196;28;20480;-81
2024/01/03 09:43:46;;;;;;;3.60;1.50;;;;;;;7.56;100.00;95844.75;5046859;28;20451;-81
2024/01/03 09:46:13;;;;;;;7.60;1.80;;;;;;;7.55;100.00;95846.59;5051164;28;20399;-81
2024/01/03 09:48:40;;;;;;;3.60;1.40;;;;;;;7.55;100.00;95846.59;5042082;28;21079;-80
2024/01/03 09:51:07;;;;;;;2.70;1.23;;;;;;;7.56;100.00;95847.38;5045606;28;20997;-82
2024/01/03 09:53:34;;;;;;;4.72;1.67;;;;;;;7.49;100.00;95862.66;5044656;28;20399;-81
2024/01/03 09:56:01;;;;;;;5.35;1.63;;;;;;;7.47;100.00;95855.03;5045095;28;20412;-80
2024/01/03 09:58:27;;;;;;;4.63;1.60;;;;;;;7.62;100.00;95843.66;5044415;28;20961;-80
2024/01/03 10:00:54;;;;;;;3.65;1.55;;;;;;;7.73;100.00;95853.91;5047525;28;20418;-79
2024/01/03 10:03:21;;;;;;;2.45;1.50;;;;;;;7.83;100.00;95846.97;5047451;28;20411;-80
2024/01/03 10:06:02;;;;;;;5.50;1.60;;;;;;;7.82;100.00;95840.94;5045408;28;20402;-78
2024/01/03 10:08:29;;;;;;;3.53;1.50;;;;;;;7.86;100.00;95841.97;5043589;28;20762;-81
2024/01/03 10:10:55;;;;;;;3.28;1.67;;;;;;;7.89;100.00;95848.56;5037641;28;20405;-81
2024/01/03 10:13:27;;;;;;;4.30;1.40;;;;;;;7.81;100.00;95859.66;5038938;28;20403;-79
2024/01/03 10:15:54;;;;;;;5.43;1.70;;;;;;;7.75;100.00;95848.34;5037880;28;20510;-80
2024/01/03 10:18:22;;;;;;;3.58;1.60;;;;;;;7.78;100.00;95839.91;5046362;28;20395;-79
2024/01/03 10:20:48;;;;;;;4.82;1.50;;;;;;;7.98;100.00;95849.53;5049120;28;20394;-80
2024/01/03 10:23:16;;;;;;;4.70;1.73;;;;;;;8.08;100.00;95857.41;5045886;28;20409;-82
2024/01/03 10:25:43;;;;;;;6.00;1.70;;;;;;;8.14;100.00;95846.56;5037094;28;20435;-80
2024/01/03 10:28:11;;;;;;;4.40;1.60;;;;;;;8.14;100.00;95840.50;5038481;28;20494;-82
2024/01/03 10:30:38;;;;;;;8.35;2.20;;;;;;;8.11;100.00;95831.31;5038685;28;20417;-80
2024/01/03 10:33:06;;;;;;;2.95;1.55;;;;;;;8.02;100.00;95838.22;5037154;28;20439;-78
2024/01/03 10:35:35;;;;;;;4.78;1.50;;;;;;;8.02;100.00;95834.78;5036326;28;20395;-83
2024/01/03 10:38:03;;;;;;;5.63;2.10;;;;;;;8.04;100.00;95825.53;5036306;28;20391;-82
2024/01/03 10:40:31;;;;;;;7.90;1.88;;;;;;;8.50;100.00;95839.22;5037999;28;20402;-83
2024/01/03 10:42:58;;;;;;;5.15;1.65;;;;;;;9.15;100.00;95836.31;5040679;28;20787;-81
2024/01/03 10:45:24;;;;;;;4.40;1.70;;;;;;;9.84;100.00;95856.13;5039002;28;20399;-81
2024/01/03 10:47:51;;;;;;;2.45;1.40;;;;;;;10.09;100.00;95832.78;5039492;28;20406;-82
2024/01/03 10:50:18;;;;;;;3.63;1.20;;;;;;;10.40;100.00;95827.09;5038815;28;20406;-82
2024/01/03 10:52:46;;;;;;;4.32;1.33;;;;;;;10.78;100.00;95827.81;5039100;28;20807;-81
2024/01/03 10:55:19;;;;;;;1.77;1.10;;;;;;;10.79;100.00;95824.09;5040692;28;20872;-82
2024/01/03 10:57:56;;;;;;;2.70;1.30;;;;;;;10.57;100.00;95819.44;5046518;28;20403;-82
2024/01/03 11:00:33;;;;;;;5.78;1.70;;;;;;;10.28;100.00;95832.03;5046762;28;20426;-80
2024/01/03 11:03:09;;;;;;;4.47;1.45;;;;;;;9.81;100.00;95827.63;5048406;28;20934;-79
2024/01/03 11:05:45;;;;;;;2.95;1.40;;;;;;;9.74;100.00;95832.47;5048042;28;20395;-80
2024/01/03 11:08:16;;;;;;;2.53;1.30;;;;;;;9.61;100.00;95855.09;5049502;28;20425;-79
2024/01/03 11:10:54;;;;;;;6.53;1.50;;;;;;;9.49;100.00;95834.34;5034695;28;20495;-80
2024/01/03 11:13:27;;;;;;;7.93;1.60;;;;;;;9.51;100.00;95832.22;5044643;28;20403;-80
2024/01/03 11:15:53;;;;;;;3.57;1.40;;;;;;;9.78;100.00;95858.03;5038391;28;20395;-81
2024/01/03 11:18:50;;;;;;;4.40;1.23;;;;;;;10.27;100.00;95844.47;5038529;28;20518;-80
2024/01/03 11:21:38;;;;;;;4.07;1.30;;;;;;;10.61;100.00;95843.44;5040727;28;20403;-79
2024/01/03 11:24:50;;;;;;;3.55;1.38;;;;;;;10.56;100.00;95835.59;5032657;28;20489;-81
2024/01/03 11:27:19;;;;;;;3.92;1.20;;;;;;;10.29;100.00;95826.47;5038203;28;20728;-81
2024/01/03 11:29:45;;;;;;;2.13;1.05;;;;;;;10.14;100.00;95828.53;5037852;28;20894;-82
2024/01/03 11:32:14;;;;;;;3.10;1.20;;;;;;;10.36;100.00;95824.25;5038308;28;20437;-81